sensor_id;sensor_type;location;lat;lon;timestamp;P1;durP1;ratioP1;P2;durP2;ratioP2
17422;SDS011;8829;47.932;7.810;2022-07-21T00:00:18;9.50;;;8.70;;
17422;SDS011;8829;47.932;7.810;2022-07-21T00:02:46;9.63;;;8.77;;
17422;SDS011;8829;47.932;7.810;2022-07-21T00:05:13;9.67;;;8.70;;
17422;SDS011;8829;47.932;7.810;2022-07-21T00:07:41;9.60;;;8.70;;
17422;SDS011;8829;47.932;7.810;2022-07-21T00:10:08;9.90;;;9.07;;
17422;SDS011;8829;47.932;7.810;2022-07-21T00:12:35;9.87;;;8.97;;
17422;SDS011;8829;47.932;7.810;2022-07-21T00:15:02;9.63;;;8.73;;
17422;SDS011;8829;47.932;7.810;2022-07-21T00:17:32;11.50;;;8.70;;
17422;SDS011;8829;47.932;7.810;2022-07-21T00:19:59;10.47;;;8.67;;
17422;SDS011;8829;47.932;7.810;2022-07-21T00:22:26;10.27;;;9.00;;
17422;SDS011;8829;47.932;7.810;2022-07-21T00:24:53;9.80;;;8.80;;
17422;SDS011;8829;47.932;7.810;2022-07-21T00:27:20;10.03;;;8.50;;
17422;SDS011;8829;47.932;7.810;2022-07-21T00:29:47;9.97;;;9.00;;
17422;SDS011;8829;47.932;7.810;2022-07-21T00:32:14;11.13;;;9.90;;
17422;SDS011;8829;47.932;7.810;2022-07-21T00:34:42;12.37;;;8.77;;
17422;SDS011;8829;47.932;7.810;2022-07-21T00:37:09;10.27;;;9.07;;
17422;SDS011;8829;47.932;7.810;2022-07-21T00:39:35;11.43;;;9.73;;
17422;SDS011;8829;47.932;7.810;2022-07-21T00:42:03;10.70;;;9.60;;
17422;SDS011;8829;47.932;7.810;2022-07-21T00:44:30;9.40;;;8.43;;
17422;SDS011;8829;47.932;7.810;2022-07-21T00:46:57;9.97;;;8.97;;
17422;SDS011;8829;47.932;7.810;2022-07-21T00:49:24;9.93;;;8.97;;
17422;SDS011;8829;47.932;7.810;2022-07-21T00:51:54;11.80;;;9.57;;
17422;SDS011;8829;47.932;7.810;2022-07-21T00:54:21;10.10;;;9.10;;
17422;SDS011;8829;47.932;7.810;2022-07-21T00:56:47;8.90;;;8.00;;
17422;SDS011;8829;47.932;7.810;2022-07-21T00:59:16;8.90;;;8.10;;
17422;SDS011;8829;47.932;7.810;2022-07-21T01:01:43;10.17;;;8.90;;
17422;SDS011;8829;47.932;7.810;2022-07-21T01:04:10;10.03;;;8.30;;
17422;SDS011;8829;47.932;7.810;2022-07-21T01:06:37;8.83;;;8.03;;
17422;SDS011;8829;47.932;7.810;2022-07-21T01:09:05;10.10;;;9.10;;
17422;SDS011;8829;47.932;7.810;2022-07-21T01:11:32;9.97;;;8.97;;
17422;SDS011;8829;47.932;7.810;2022-07-21T01:13:59;10.17;;;8.17;;
17422;SDS011;8829;47.932;7.810;2022-07-21T01:16:26;9.57;;;8.50;;
17422;SDS011;8829;47.932;7.810;2022-07-21T01:18:53;9.90;;;9.00;;
17422;SDS011;8829;47.932;7.810;2022-07-21T01:21:31;8.83;;;8.00;;
17422;SDS011;8829;47.932;7.810;2022-07-21T01:23:59;9.93;;;9.00;;
17422;SDS011;8829;47.932;7.810;2022-07-21T01:26:27;11.40;;;9.60;;
17422;SDS011;8829;47.932;7.810;2022-07-21T01:28:55;9.57;;;8.67;;
17422;SDS011;8829;47.932;7.810;2022-07-21T01:31:23;8.87;;;7.97;;
17422;SDS011;8829;47.932;7.810;2022-07-21T01:33:50;10.43;;;9.37;;
17422;SDS011;8829;47.932;7.810;2022-07-21T01:36:17;9.80;;;8.80;;
17422;SDS011;8829;47.932;7.810;2022-07-21T01:38:45;9.77;;;8.87;;
17422;SDS011;8829;47.932;7.810;2022-07-21T01:41:29;10.70;;;9.23;;
17422;SDS011;8829;47.932;7.810;2022-07-21T01:43:59;11.90;;;8.67;;
17422;SDS011;8829;47.932;7.810;2022-07-21T01:46:28;10.77;;;8.57;;
17422;SDS011;8829;47.932;7.810;2022-07-21T01:48:55;8.63;;;7.83;;
17422;SDS011;8829;47.932;7.810;2022-07-21T01:51:22;9.50;;;8.60;;
17422;SDS011;8829;47.932;7.810;2022-07-21T01:53:51;9.50;;;8.53;;
17422;SDS011;8829;47.932;7.810;2022-07-21T01:56:18;10.53;;;9.17;;
17422;SDS011;8829;47.932;7.810;2022-07-21T01:58:47;11.13;;;8.57;;
17422;SDS011;8829;47.932;7.810;2022-07-21T02:01:15;10.40;;;9.30;;
17422;SDS011;8829;47.932;7.810;2022-07-21T02:03:42;10.97;;;9.87;;
17422;SDS011;8829;47.932;7.810;2022-07-21T02:06:10;10.47;;;8.70;;
17422;SDS011;8829;47.932;7.810;2022-07-21T02:08:37;10.50;;;8.43;;
17422;SDS011;8829;47.932;7.810;2022-07-21T02:11:05;10.53;;;9.43;;
17422;SDS011;8829;47.932;7.810;2022-07-21T02:13:33;10.23;;;9.23;;
17422;SDS011;8829;47.932;7.810;2022-07-21T02:16:00;10.50;;;9.60;;
17422;SDS011;8829;47.932;7.810;2022-07-21T02:18:27;10.00;;;9.03;;
17422;SDS011;8829;47.932;7.810;2022-07-21T02:20:54;10.17;;;9.23;;
17422;SDS011;8829;47.932;7.810;2022-07-21T02:23:21;12.27;;;9.53;;
17422;SDS011;8829;47.932;7.810;2022-07-21T02:25:49;10.60;;;9.60;;
17422;SDS011;8829;47.932;7.810;2022-07-21T02:28:18;10.77;;;8.90;;
17422;SDS011;8829;47.932;7.810;2022-07-21T02:30:46;10.60;;;9.60;;
17422;SDS011;8829;47.932;7.810;2022-07-21T02:33:13;9.60;;;8.67;;
17422;SDS011;8829;47.932;7.810;2022-07-21T02:35:40;10.00;;;8.87;;
17422;SDS011;8829;47.932;7.810;2022-07-21T02:38:09;10.73;;;9.13;;
17422;SDS011;8829;47.932;7.810;2022-07-21T02:40:35;10.90;;;9.10;;
17422;SDS011;8829;47.932;7.810;2022-07-21T02:43:03;10.17;;;9.27;;
17422;SDS011;8829;47.932;7.810;2022-07-21T02:45:32;11.47;;;9.70;;
17422;SDS011;8829;47.932;7.810;2022-07-21T02:48:00;9.20;;;8.40;;
17422;SDS011;8829;47.932;7.810;2022-07-21T02:50:30;9.50;;;8.70;;
17422;SDS011;8829;47.932;7.810;2022-07-21T02:52:58;14.17;;;9.30;;
17422;SDS011;8829;47.932;7.810;2022-07-21T02:55:26;12.03;;;8.53;;
17422;SDS011;8829;47.932;7.810;2022-07-21T02:58:03;14.30;;;8.67;;
17422;SDS011;8829;47.932;7.810;2022-07-21T03:00:34;10.57;;;9.20;;
17422;SDS011;8829;47.932;7.810;2022-07-21T03:03:01;10.13;;;9.13;;
17422;SDS011;8829;47.932;7.810;2022-07-21T03:05:28;10.50;;;8.77;;
17422;SDS011;8829;47.932;7.810;2022-07-21T03:07:55;11.77;;;9.70;;
17422;SDS011;8829;47.932;7.810;2022-07-21T03:10:22;10.73;;;9.73;;
17422;SDS011;8829;47.932;7.810;2022-07-21T03:12:49;10.87;;;9.27;;
17422;SDS011;8829;47.932;7.810;2022-07-21T03:15:16;10.87;;;9.90;;
17422;SDS011;8829;47.932;7.810;2022-07-21T03:17:44;12.30;;;10.17;;
17422;SDS011;8829;47.932;7.810;2022-07-21T03:20:11;10.93;;;9.93;;
17422;SDS011;8829;47.932;7.810;2022-07-21T03:22:38;10.53;;;8.90;;
17422;SDS011;8829;47.932;7.810;2022-07-21T03:25:06;10.30;;;9.27;;
17422;SDS011;8829;47.932;7.810;2022-07-21T03:27:33;11.80;;;10.47;;
17422;SDS011;8829;47.932;7.810;2022-07-21T03:30:02;13.30;;;9.70;;
17422;SDS011;8829;47.932;7.810;2022-07-21T03:32:30;12.70;;;10.93;;
17422;SDS011;8829;47.932;7.810;2022-07-21T03:34:58;12.63;;;10.50;;
17422;SDS011;8829;47.932;7.810;2022-07-21T03:37:25;11.60;;;10.40;;
17422;SDS011;8829;47.932;7.810;2022-07-21T03:39:52;10.83;;;9.20;;
17422;SDS011;8829;47.932;7.810;2022-07-21T03:42:19;12.57;;;10.10;;
17422;SDS011;8829;47.932;7.810;2022-07-21T03:44:47;11.77;;;10.07;;
17422;SDS011;8829;47.932;7.810;2022-07-21T03:47:14;9.90;;;9.00;;
17422;SDS011;8829;47.932;7.810;2022-07-21T03:49:40;11.40;;;10.30;;
17422;SDS011;8829;47.932;7.810;2022-07-21T03:52:09;12.77;;;10.80;;
17422;SDS011;8829;47.932;7.810;2022-07-21T03:54:36;10.70;;;9.70;;
17422;SDS011;8829;47.932;7.810;2022-07-21T03:57:02;16.30;;;10.23;;
17422;SDS011;8829;47.932;7.810;2022-07-21T03:59:30;10.53;;;9.47;;
17422;SDS011;8829;47.932;7.810;2022-07-21T04:01:57;13.10;;;9.60;;
17422;SDS011;8829;47.932;7.810;2022-07-21T04:04:24;10.13;;;9.23;;
17422;SDS011;8829;47.932;7.810;2022-07-21T04:06:50;12.67;;;8.67;;
17422;SDS011;8829;47.932;7.810;2022-07-21T04:09:18;11.57;;;8.80;;
17422;SDS011;8829;47.932;7.810;2022-07-21T04:11:45;9.73;;;8.73;;
17422;SDS011;8829;47.932;7.810;2022-07-21T04:14:13;9.90;;;8.90;;
17422;SDS011;8829;47.932;7.810;2022-07-21T04:16:40;10.47;;;9.03;;
17422;SDS011;8829;47.932;7.810;2022-07-21T04:19:07;9.07;;;8.23;;
17422;SDS011;8829;47.932;7.810;2022-07-21T04:21:34;10.30;;;9.13;;
17422;SDS011;8829;47.932;7.810;2022-07-21T04:24:01;8.93;;;7.93;;
17422;SDS011;8829;47.932;7.810;2022-07-21T04:26:29;8.70;;;7.90;;
17422;SDS011;8829;47.932;7.810;2022-07-21T04:28:56;9.07;;;8.27;;
17422;SDS011;8829;47.932;7.810;2022-07-21T04:31:23;8.43;;;7.73;;
17422;SDS011;8829;47.932;7.810;2022-07-21T04:33:49;9.17;;;8.27;;
17422;SDS011;8829;47.932;7.810;2022-07-21T04:36:16;10.07;;;7.83;;
17422;SDS011;8829;47.932;7.810;2022-07-21T04:38:43;9.63;;;7.83;;
17422;SDS011;8829;47.932;7.810;2022-07-21T04:41:10;8.83;;;7.87;;
17422;SDS011;8829;47.932;7.810;2022-07-21T04:43:38;8.47;;;7.50;;
17422;SDS011;8829;47.932;7.810;2022-07-21T04:46:06;8.93;;;7.63;;
17422;SDS011;8829;47.932;7.810;2022-07-21T04:48:33;9.33;;;7.87;;
17422;SDS011;8829;47.932;7.810;2022-07-21T04:50:59;8.30;;;7.47;;
17422;SDS011;8829;47.932;7.810;2022-07-21T04:53:26;8.07;;;7.10;;
17422;SDS011;8829;47.932;7.810;2022-07-21T04:55:53;7.83;;;7.00;;
17422;SDS011;8829;47.932;7.810;2022-07-21T04:58:20;9.83;;;7.37;;
17422;SDS011;8829;47.932;7.810;2022-07-21T05:00:48;8.37;;;7.23;;
17422;SDS011;8829;47.932;7.810;2022-07-21T05:03:15;11.13;;;7.73;;
17422;SDS011;8829;47.932;7.810;2022-07-21T05:05:42;9.83;;;7.10;;
17422;SDS011;8829;47.932;7.810;2022-07-21T05:08:09;10.93;;;7.40;;
17422;SDS011;8829;47.932;7.810;2022-07-21T05:10:36;8.50;;;6.87;;
17422;SDS011;8829;47.932;7.810;2022-07-21T05:13:02;7.87;;;7.10;;
17422;SDS011;8829;47.932;7.810;2022-07-21T05:15:29;8.23;;;7.50;;
17422;SDS011;8829;47.932;7.810;2022-07-21T05:18:17;9.03;;;7.63;;
17422;SDS011;8829;47.932;7.810;2022-07-21T05:20:44;10.20;;;7.80;;
17422;SDS011;8829;47.932;7.810;2022-07-21T05:23:10;8.27;;;6.87;;
17422;SDS011;8829;47.932;7.810;2022-07-21T05:25:37;7.67;;;6.93;;
17422;SDS011;8829;47.932;7.810;2022-07-21T05:28:05;8.70;;;7.10;;
17422;SDS011;8829;47.932;7.810;2022-07-21T05:30:32;7.30;;;6.60;;
17422;SDS011;8829;47.932;7.810;2022-07-21T05:33:00;7.53;;;6.83;;
17422;SDS011;8829;47.932;7.810;2022-07-21T05:35:28;6.80;;;6.20;;
17422;SDS011;8829;47.932;7.810;2022-07-21T05:37:55;7.67;;;6.00;;
17422;SDS011;8829;47.932;7.810;2022-07-21T05:40:22;7.00;;;6.30;;
17422;SDS011;8829;47.932;7.810;2022-07-21T05:42:49;7.67;;;6.13;;
17422;SDS011;8829;47.932;7.810;2022-07-21T05:45:16;8.40;;;6.00;;
17422;SDS011;8829;47.932;7.810;2022-07-21T05:47:43;9.13;;;6.77;;
17422;SDS011;8829;47.932;7.810;2022-07-21T05:50:10;8.17;;;6.23;;
17422;SDS011;8829;47.932;7.810;2022-07-21T05:52:39;6.83;;;6.23;;
17422;SDS011;8829;47.932;7.810;2022-07-21T05:55:06;6.33;;;5.73;;
17422;SDS011;8829;47.932;7.810;2022-07-21T05:57:34;6.60;;;5.57;;
17422;SDS011;8829;47.932;7.810;2022-07-21T06:00:03;7.17;;;5.87;;
17422;SDS011;8829;47.932;7.810;2022-07-21T06:02:31;6.23;;;5.60;;
17422;SDS011;8829;47.932;7.810;2022-07-21T06:04:58;6.00;;;5.37;;
17422;SDS011;8829;47.932;7.810;2022-07-21T06:07:25;9.10;;;5.50;;
17422;SDS011;8829;47.932;7.810;2022-07-21T06:09:54;6.07;;;5.47;;
17422;SDS011;8829;47.932;7.810;2022-07-21T06:12:21;5.27;;;4.80;;
17422;SDS011;8829;47.932;7.810;2022-07-21T06:14:47;5.90;;;5.37;;
17422;SDS011;8829;47.932;7.810;2022-07-21T06:17:14;5.30;;;4.87;;
17422;SDS011;8829;47.932;7.810;2022-07-21T06:19:41;6.87;;;5.13;;
17422;SDS011;8829;47.932;7.810;2022-07-21T06:22:08;8.83;;;5.27;;
17422;SDS011;8829;47.932;7.810;2022-07-21T06:24:35;8.33;;;5.03;;
17422;SDS011;8829;47.932;7.810;2022-07-21T06:27:03;6.97;;;5.33;;
17422;SDS011;8829;47.932;7.810;2022-07-21T06:29:30;7.50;;;4.87;;
17422;SDS011;8829;47.932;7.810;2022-07-21T06:31:57;5.87;;;5.20;;
17422;SDS011;8829;47.932;7.810;2022-07-21T06:34:24;5.43;;;4.93;;
17422;SDS011;8829;47.932;7.810;2022-07-21T06:36:50;5.23;;;4.63;;
17422;SDS011;8829;47.932;7.810;2022-07-21T06:39:17;5.97;;;5.10;;
17422;SDS011;8829;47.932;7.810;2022-07-21T06:41:44;6.23;;;4.93;;
17422;SDS011;8829;47.932;7.810;2022-07-21T06:44:12;5.43;;;4.93;;
17422;SDS011;8829;47.932;7.810;2022-07-21T06:46:39;5.63;;;5.10;;
17422;SDS011;8829;47.932;7.810;2022-07-21T06:49:06;11.13;;;5.93;;
17422;SDS011;8829;47.932;7.810;2022-07-21T06:51:33;7.93;;;5.27;;
17422;SDS011;8829;47.932;7.810;2022-07-21T06:54:00;5.80;;;4.90;;
17422;SDS011;8829;47.932;7.810;2022-07-21T06:56:26;8.73;;;4.77;;
17422;SDS011;8829;47.932;7.810;2022-07-21T06:58:53;9.00;;;5.50;;
17422;SDS011;8829;47.932;7.810;2022-07-21T07:01:21;5.67;;;5.17;;
17422;SDS011;8829;47.932;7.810;2022-07-21T07:03:48;5.40;;;4.90;;
17422;SDS011;8829;47.932;7.810;2022-07-21T07:06:15;6.17;;;5.33;;
17422;SDS011;8829;47.932;7.810;2022-07-21T07:08:42;5.27;;;4.83;;
17422;SDS011;8829;47.932;7.810;2022-07-21T07:11:09;5.70;;;5.03;;
17422;SDS011;8829;47.932;7.810;2022-07-21T07:13:36;5.75;;;5.03;;
17422;SDS011;8829;47.932;7.810;2022-07-21T07:16:03;5.70;;;4.50;;
17422;SDS011;8829;47.932;7.810;2022-07-21T07:18:31;6.15;;;4.47;;
17422;SDS011;8829;47.932;7.810;2022-07-21T07:20:58;5.07;;;4.28;;
17422;SDS011;8829;47.932;7.810;2022-07-21T07:23:25;5.03;;;4.43;;
17422;SDS011;8829;47.932;7.810;2022-07-21T07:25:52;5.35;;;4.43;;
17422;SDS011;8829;47.932;7.810;2022-07-21T07:28:19;10.23;;;4.95;;
17422;SDS011;8829;47.932;7.810;2022-07-21T07:30:45;4.35;;;3.72;;
17422;SDS011;8829;47.932;7.810;2022-07-21T07:33:13;3.65;;;3.35;;
17422;SDS011;8829;47.932;7.810;2022-07-21T07:35:41;6.45;;;3.90;;
17422;SDS011;8829;47.932;7.810;2022-07-21T07:38:11;5.22;;;3.80;;
17422;SDS011;8829;47.932;7.810;2022-07-21T07:40:39;5.93;;;4.03;;
17422;SDS011;8829;47.932;7.810;2022-07-21T07:43:08;4.60;;;3.22;;
17422;SDS011;8829;47.932;7.810;2022-07-21T07:45:35;3.72;;;3.42;;
17422;SDS011;8829;47.932;7.810;2022-07-21T07:48:02;5.40;;;3.53;;
17422;SDS011;8829;47.932;7.810;2022-07-21T07:50:30;4.35;;;3.60;;
17422;SDS011;8829;47.932;7.810;2022-07-21T07:52:58;3.88;;;3.40;;
17422;SDS011;8829;47.932;7.810;2022-07-21T07:55:25;5.75;;;3.75;;
17422;SDS011;8829;47.932;7.810;2022-07-21T07:57:52;5.57;;;5.00;;
17422;SDS011;8829;47.932;7.810;2022-07-21T08:00:19;4.03;;;3.47;;
17422;SDS011;8829;47.932;7.810;2022-07-21T08:02:45;4.35;;;3.95;;
17422;SDS011;8829;47.932;7.810;2022-07-21T08:05:12;4.75;;;3.58;;
17422;SDS011;8829;47.932;7.810;2022-07-21T08:07:39;4.15;;;3.75;;
17422;SDS011;8829;47.932;7.810;2022-07-21T08:10:08;4.88;;;3.35;;
17422;SDS011;8829;47.932;7.810;2022-07-21T08:12:38;3.70;;;3.40;;
17422;SDS011;8829;47.932;7.810;2022-07-21T08:15:06;5.82;;;3.30;;
17422;SDS011;8829;47.932;7.810;2022-07-21T08:17:34;3.85;;;3.08;;
17422;SDS011;8829;47.932;7.810;2022-07-21T08:20:01;3.00;;;2.80;;
17422;SDS011;8829;47.932;7.810;2022-07-21T08:22:29;3.30;;;3.00;;
17422;SDS011;8829;47.932;7.810;2022-07-21T08:24:56;3.30;;;2.95;;
17422;SDS011;8829;47.932;7.810;2022-07-21T08:27:24;3.08;;;2.85;;
17422;SDS011;8829;47.932;7.810;2022-07-21T08:29:51;2.70;;;2.50;;
17422;SDS011;8829;47.932;7.810;2022-07-21T08:32:18;3.03;;;2.53;;
17422;SDS011;8829;47.932;7.810;2022-07-21T08:34:45;3.00;;;2.63;;
17422;SDS011;8829;47.932;7.810;2022-07-21T08:37:12;2.70;;;2.50;;
17422;SDS011;8829;47.932;7.810;2022-07-21T08:39:39;2.53;;;2.42;;
17422;SDS011;8829;47.932;7.810;2022-07-21T08:42:06;3.88;;;2.83;;
17422;SDS011;8829;47.932;7.810;2022-07-21T08:44:34;3.30;;;2.75;;
17422;SDS011;8829;47.932;7.810;2022-07-21T08:47:01;2.70;;;2.50;;
17422;SDS011;8829;47.932;7.810;2022-07-21T08:49:31;3.95;;;2.70;;
17422;SDS011;8829;47.932;7.810;2022-07-21T08:52:00;3.03;;;2.83;;
17422;SDS011;8829;47.932;7.810;2022-07-21T08:54:27;2.85;;;2.70;;
17422;SDS011;8829;47.932;7.810;2022-07-21T08:56:54;4.65;;;3.00;;
17422;SDS011;8829;47.932;7.810;2022-07-21T08:59:21;2.80;;;2.60;;
17422;SDS011;8829;47.932;7.810;2022-07-21T09:01:50;2.72;;;2.53;;
17422;SDS011;8829;47.932;7.810;2022-07-21T09:04:23;3.75;;;2.67;;
17422;SDS011;8829;47.932;7.810;2022-07-21T09:06:52;3.80;;;2.83;;
17422;SDS011;8829;47.932;7.810;2022-07-21T09:09:21;4.90;;;2.90;;
17422;SDS011;8829;47.932;7.810;2022-07-21T09:11:48;4.38;;;2.88;;
17422;SDS011;8829;47.932;7.810;2022-07-21T09:14:17;2.70;;;2.50;;
17422;SDS011;8829;47.932;7.810;2022-07-21T09:16:47;2.63;;;2.42;;
17422;SDS011;8829;47.932;7.810;2022-07-21T09:19:18;5.43;;;2.70;;
17422;SDS011;8829;47.932;7.810;2022-07-21T09:21:47;2.83;;;2.63;;
17422;SDS011;8829;47.932;7.810;2022-07-21T09:24:16;3.47;;;2.80;;
17422;SDS011;8829;47.932;7.810;2022-07-21T09:27:01;2.40;;;2.20;;
17422;SDS011;8829;47.932;7.810;2022-07-21T09:29:35;2.85;;;2.65;;
17422;SDS011;8829;47.932;7.810;2022-07-21T09:32:18;2.00;;;1.90;;
17422;SDS011;8829;47.932;7.810;2022-07-21T09:34:47;3.92;;;2.60;;
17422;SDS011;8829;47.932;7.810;2022-07-21T09:37:16;2.20;;;2.00;;
17422;SDS011;8829;47.932;7.810;2022-07-21T09:39:45;2.33;;;2.22;;
17422;SDS011;8829;47.932;7.810;2022-07-21T09:42:17;3.17;;;2.42;;
17422;SDS011;8829;47.932;7.810;2022-07-21T09:44:47;2.35;;;2.20;;
17422;SDS011;8829;47.932;7.810;2022-07-21T09:47:18;2.33;;;2.13;;
17422;SDS011;8829;47.932;7.810;2022-07-21T09:49:46;2.58;;;2.38;;
17422;SDS011;8829;47.932;7.810;2022-07-21T09:52:20;2.72;;;2.28;;
17422;SDS011;8829;47.932;7.810;2022-07-21T09:54:48;2.50;;;2.30;;
17422;SDS011;8829;47.932;7.810;2022-07-21T09:57:15;3.58;;;1.90;;
17422;SDS011;8829;47.932;7.810;2022-07-21T09:59:43;2.95;;;2.10;;
17422;SDS011;8829;47.932;7.810;2022-07-21T10:02:14;2.28;;;2.05;;
17422;SDS011;8829;47.932;7.810;2022-07-21T10:04:44;2.25;;;2.05;;
17422;SDS011;8829;47.932;7.810;2022-07-21T10:07:12;2.45;;;1.92;;
17422;SDS011;8829;47.932;7.810;2022-07-21T10:09:42;1.90;;;1.80;;
17422;SDS011;8829;47.932;7.810;2022-07-21T10:12:10;2.63;;;2.15;;
17422;SDS011;8829;47.932;7.810;2022-07-21T10:14:37;2.78;;;2.38;;
17422;SDS011;8829;47.932;7.810;2022-07-21T10:17:04;2.40;;;2.15;;
17422;SDS011;8829;47.932;7.810;2022-07-21T10:19:32;2.28;;;2.05;;
17422;SDS011;8829;47.932;7.810;2022-07-21T10:22:09;3.45;;;2.55;;
17422;SDS011;8829;47.932;7.810;2022-07-21T10:24:48;2.60;;;2.42;;
17422;SDS011;8829;47.932;7.810;2022-07-21T10:27:16;2.42;;;2.22;;
17422;SDS011;8829;47.932;7.810;2022-07-21T10:29:48;2.10;;;1.87;;
17422;SDS011;8829;47.932;7.810;2022-07-21T10:32:27;2.28;;;2.08;;
17422;SDS011;8829;47.932;7.810;2022-07-21T10:34:58;2.90;;;1.80;;
17422;SDS011;8829;47.932;7.810;2022-07-21T10:37:44;2.10;;;1.90;;
17422;SDS011;8829;47.932;7.810;2022-07-21T10:49:07;2.85;;;2.03;;
17422;SDS011;8829;47.932;7.810;2022-07-21T10:51:36;2.13;;;1.92;;
17422;SDS011;8829;47.932;7.810;2022-07-21T10:54:18;2.50;;;1.85;;
17422;SDS011;8829;47.932;7.810;2022-07-21T11:02:50;2.63;;;2.42;;
17422;SDS011;8829;47.932;7.810;2022-07-21T11:05:18;1.85;;;1.67;;
17422;SDS011;8829;47.932;7.810;2022-07-21T11:10:37;2.15;;;1.85;;
17422;SDS011;8829;47.932;7.810;2022-07-21T11:13:05;1.67;;;1.58;;
17422;SDS011;8829;47.932;7.810;2022-07-21T11:18:21;2.83;;;1.90;;
17422;SDS011;8829;47.932;7.810;2022-07-21T11:23:44;2.45;;;1.70;;
17422;SDS011;8829;47.932;7.810;2022-07-21T11:26:14;1.80;;;1.70;;
17422;SDS011;8829;47.932;7.810;2022-07-21T11:28:42;5.72;;;1.98;;
17422;SDS011;8829;47.932;7.810;2022-07-21T11:31:12;1.85;;;1.75;;
17422;SDS011;8829;47.932;7.810;2022-07-21T11:33:42;2.45;;;2.08;;
17422;SDS011;8829;47.932;7.810;2022-07-21T11:36:10;2.28;;;1.73;;
17422;SDS011;8829;47.932;7.810;2022-07-21T11:38:58;2.60;;;1.75;;
17422;SDS011;8829;47.932;7.810;2022-07-21T11:41:27;2.08;;;1.98;;
17422;SDS011;8829;47.932;7.810;2022-07-21T11:43:54;4.35;;;2.25;;
17422;SDS011;8829;47.932;7.810;2022-07-21T11:46:21;2.53;;;2.00;;
17422;SDS011;8829;47.932;7.810;2022-07-21T11:48:48;2.33;;;2.13;;
17422;SDS011;8829;47.932;7.810;2022-07-21T11:51:26;8.32;;;7.55;;
17422;SDS011;8829;47.932;7.810;2022-07-21T11:53:53;2.13;;;1.98;;
17422;SDS011;8829;47.932;7.810;2022-07-21T11:56:20;2.03;;;1.92;;
17422;SDS011;8829;47.932;7.810;2022-07-21T11:58:49;2.20;;;2.10;;
17422;SDS011;8829;47.932;7.810;2022-07-21T12:01:15;2.20;;;2.00;;
17422;SDS011;8829;47.932;7.810;2022-07-21T12:03:47;4.05;;;2.50;;
17422;SDS011;8829;47.932;7.810;2022-07-21T12:06:14;1.70;;;1.60;;
17422;SDS011;8829;47.932;7.810;2022-07-21T12:08:42;2.40;;;2.10;;
17422;SDS011;8829;47.932;7.810;2022-07-21T12:11:10;2.38;;;2.20;;
17422;SDS011;8829;47.932;7.810;2022-07-21T12:16:22;2.88;;;2.13;;
17422;SDS011;8829;47.932;7.810;2022-07-21T12:18:49;2.30;;;2.10;;
17422;SDS011;8829;47.932;7.810;2022-07-21T12:21:40;3.38;;;1.90;;
17422;SDS011;8829;47.932;7.810;2022-07-21T12:24:12;2.78;;;2.47;;
17422;SDS011;8829;47.932;7.810;2022-07-21T12:26:39;2.55;;;2.28;;
17422;SDS011;8829;47.932;7.810;2022-07-21T12:29:08;3.03;;;2.83;;
17422;SDS011;8829;47.932;7.810;2022-07-21T12:31:36;2.10;;;1.90;;
17422;SDS011;8829;47.932;7.810;2022-07-21T12:34:10;2.42;;;2.28;;
17422;SDS011;8829;47.932;7.810;2022-07-21T12:36:39;2.08;;;1.98;;
17422;SDS011;8829;47.932;7.810;2022-07-21T12:39:13;2.45;;;2.10;;
17422;SDS011;8829;47.932;7.810;2022-07-21T12:41:58;2.47;;;2.10;;
17422;SDS011;8829;47.932;7.810;2022-07-21T12:44:27;2.83;;;2.38;;
17422;SDS011;8829;47.932;7.810;2022-07-21T12:46:55;2.85;;;2.30;;
17422;SDS011;8829;47.932;7.810;2022-07-21T12:49:22;3.03;;;2.30;;
17422;SDS011;8829;47.932;7.810;2022-07-21T12:51:54;1.85;;;1.73;;
17422;SDS011;8829;47.932;7.810;2022-07-21T12:54:22;2.42;;;2.20;;
17422;SDS011;8829;47.932;7.810;2022-07-21T12:56:50;3.65;;;2.05;;
17422;SDS011;8829;47.932;7.810;2022-07-21T12:59:18;4.00;;;2.05;;
17422;SDS011;8829;47.932;7.810;2022-07-21T13:01:46;2.70;;;2.45;;
17422;SDS011;8829;47.932;7.810;2022-07-21T13:04:13;6.40;;;5.80;;
17422;SDS011;8829;47.932;7.810;2022-07-21T13:06:40;4.03;;;2.60;;
17422;SDS011;8829;47.932;7.810;2022-07-21T13:09:07;3.72;;;2.03;;
17422;SDS011;8829;47.932;7.810;2022-07-21T13:11:34;2.30;;;1.98;;
17422;SDS011;8829;47.932;7.810;2022-07-21T13:14:00;2.08;;;1.98;;
17422;SDS011;8829;47.932;7.810;2022-07-21T13:16:29;5.63;;;2.30;;
17422;SDS011;8829;47.932;7.810;2022-07-21T13:18:57;3.17;;;2.22;;
17422;SDS011;8829;47.932;7.810;2022-07-21T13:21:24;4.60;;;2.40;;
17422;SDS011;8829;47.932;7.810;2022-07-21T13:23:51;4.97;;;3.55;;
17422;SDS011;8829;47.932;7.810;2022-07-21T13:26:18;2.80;;;2.40;;
17422;SDS011;8829;47.932;7.810;2022-07-21T13:28:44;2.88;;;2.40;;
17422;SDS011;8829;47.932;7.810;2022-07-21T13:31:11;2.20;;;2.10;;
17422;SDS011;8829;47.932;7.810;2022-07-21T13:33:38;3.55;;;2.42;;
17422;SDS011;8829;47.932;7.810;2022-07-21T13:36:08;2.17;;;1.98;;
17422;SDS011;8829;47.932;7.810;2022-07-21T13:38:35;2.45;;;2.25;;
17422;SDS011;8829;47.932;7.810;2022-07-21T13:41:03;2.42;;;2.10;;
17422;SDS011;8829;47.932;7.810;2022-07-21T13:43:30;2.05;;;1.95;;
17422;SDS011;8829;47.932;7.810;2022-07-21T13:45:57;3.00;;;2.80;;
17422;SDS011;8829;47.932;7.810;2022-07-21T13:48:24;6.30;;;3.90;;
17422;SDS011;8829;47.932;7.810;2022-07-21T13:50:51;2.47;;;1.90;;
17422;SDS011;8829;47.932;7.810;2022-07-21T13:53:19;2.72;;;2.53;;
17422;SDS011;8829;47.932;7.810;2022-07-21T13:55:46;2.30;;;2.13;;
17422;SDS011;8829;47.932;7.810;2022-07-21T13:58:15;2.28;;;2.05;;
17422;SDS011;8829;47.932;7.810;2022-07-21T14:00:42;4.47;;;1.90;;
17422;SDS011;8829;47.932;7.810;2022-07-21T14:03:09;3.40;;;2.40;;
17422;SDS011;8829;47.932;7.810;2022-07-21T14:05:36;3.47;;;2.50;;
17422;SDS011;8829;47.932;7.810;2022-07-21T14:08:03;2.40;;;2.20;;
17422;SDS011;8829;47.932;7.810;2022-07-21T14:10:32;2.17;;;1.92;;
17422;SDS011;8829;47.932;7.810;2022-07-21T14:12:59;3.25;;;2.15;;
17422;SDS011;8829;47.932;7.810;2022-07-21T14:15:25;3.05;;;2.65;;
17422;SDS011;8829;47.932;7.810;2022-07-21T14:17:52;3.75;;;2.30;;
17422;SDS011;8829;47.932;7.810;2022-07-21T14:20:19;3.17;;;2.55;;
17422;SDS011;8829;47.932;7.810;2022-07-21T14:22:46;2.22;;;1.80;;
17422;SDS011;8829;47.932;7.810;2022-07-21T14:25:13;3.72;;;2.20;;
17422;SDS011;8829;47.932;7.810;2022-07-21T14:27:50;2.15;;;2.00;;
17422;SDS011;8829;47.932;7.810;2022-07-21T14:30:19;2.13;;;2.03;;
17422;SDS011;8829;47.932;7.810;2022-07-21T14:32:47;2.25;;;2.05;;
17422;SDS011;8829;47.932;7.810;2022-07-21T14:35:14;2.25;;;2.05;;
17422;SDS011;8829;47.932;7.810;2022-07-21T14:37:44;2.95;;;2.22;;
17422;SDS011;8829;47.932;7.810;2022-07-21T14:40:12;1.85;;;1.75;;
17422;SDS011;8829;47.932;7.810;2022-07-21T14:42:39;1.95;;;1.85;;
17422;SDS011;8829;47.932;7.810;2022-07-21T14:45:08;2.67;;;2.20;;
17422;SDS011;8829;47.932;7.810;2022-07-21T14:47:35;2.50;;;2.20;;
17422;SDS011;8829;47.932;7.810;2022-07-21T14:50:02;2.53;;;2.10;;
17422;SDS011;8829;47.932;7.810;2022-07-21T14:52:29;2.85;;;2.25;;
17422;SDS011;8829;47.932;7.810;2022-07-21T14:54:56;2.50;;;2.30;;
17422;SDS011;8829;47.932;7.810;2022-07-21T14:57:23;2.17;;;1.98;;
17422;SDS011;8829;47.932;7.810;2022-07-21T14:59:50;2.72;;;2.20;;
17422;SDS011;8829;47.932;7.810;2022-07-21T15:02:18;3.28;;;2.13;;
17422;SDS011;8829;47.932;7.810;2022-07-21T15:04:45;3.88;;;2.28;;
17422;SDS011;8829;47.932;7.810;2022-07-21T15:07:12;3.30;;;1.80;;
17422;SDS011;8829;47.932;7.810;2022-07-21T15:09:39;2.28;;;1.98;;
17422;SDS011;8829;47.932;7.810;2022-07-21T15:12:06;2.90;;;2.00;;
17422;SDS011;8829;47.932;7.810;2022-07-21T15:14:33;2.42;;;2.10;;
17422;SDS011;8829;47.932;7.810;2022-07-21T15:17:00;7.90;;;2.38;;
17422;SDS011;8829;47.932;7.810;2022-07-21T15:19:28;2.35;;;1.92;;
17422;SDS011;8829;47.932;7.810;2022-07-21T15:21:55;2.38;;;2.17;;
17422;SDS011;8829;47.932;7.810;2022-07-21T15:24:22;2.15;;;2.00;;
17422;SDS011;8829;47.932;7.810;2022-07-21T15:26:49;2.40;;;2.20;;
17422;SDS011;8829;47.932;7.810;2022-07-21T15:29:16;4.20;;;2.10;;